Las Matas, Spain
Current Conditions -  °F | °C
As of 9:00 PM on Thursday 29 Jan 2015 (Local Time) from LEVS Reporting Station
Broken Clouds Broken Clouds  
Wind Chill: 50°   Ceiling: 4800
Heat Index: 50°   Visibility: 6mi
Dew Point: 46°   Wind: 17mph
Humidity: 87%   Direction: 230°SW
Pressure: 29.8"   Gusts: NA
Location:  40.56°N, 3.89°W
Report Text: LEVS 292000Z 23015KT 190V260 9999 SCT029 BKN048 10/08 Q1009
Loading
Personal Weather Stations






























Interactive Weather Map New forecast layout! Learn more

10-Day Weather Forecast

Advertisements
Track Severe Weather on mobile